createdAt,value
2019-05-12T00:04:10.512Z,4.30
2019-05-12T00:10:55.368Z,4.87
2019-05-12T00:17:40.422Z,4.67
2019-05-12T00:24:25.263Z,4.80
2019-05-12T00:31:10.263Z,4.97
2019-05-12T00:37:55.292Z,5.23
2019-05-12T00:44:40.139Z,4.70
2019-05-12T00:51:25.070Z,6.03
2019-05-12T00:58:10.063Z,8.33
2019-05-12T01:04:54.920Z,8.30
2019-05-12T01:11:40.280Z,9.67
2019-05-12T01:18:25.212Z,9.13
2019-05-12T01:25:10.740Z,9.60
2019-05-12T01:31:58.546Z,9.03
2019-05-12T01:38:43.583Z,10.83
2019-05-12T01:45:29.028Z,11.90
2019-05-12T01:52:15.092Z,11.37
2019-05-12T01:58:59.966Z,11.83
2019-05-12T02:05:49.152Z,12.10
2019-05-12T02:12:34.155Z,12.13
2019-05-12T02:19:19.039Z,11.47
2019-05-12T02:26:03.901Z,12.17
2019-05-12T02:32:57.294Z,13.13
2019-05-12T02:39:36.431Z,14.57
2019-05-12T02:46:21.427Z,13.43
2019-05-12T02:53:06.620Z,14.47
2019-05-12T02:59:54.059Z,14.20
2019-05-12T03:06:40.834Z,14.27
2019-05-12T03:13:25.771Z,16.43
2019-05-12T03:20:15.041Z,16.40
2019-05-12T03:26:58.208Z,16.93
2019-05-12T03:33:51.999Z,16.53
2019-05-12T03:40:30.360Z,15.93
2019-05-12T03:47:15.233Z,16.97
2019-05-12T03:54:00.554Z,16.17
2019-05-12T04:00:45.496Z,16.73
2019-05-12T04:07:30.424Z,16.07
2019-05-12T04:14:15.292Z,17.33
2019-05-12T04:21:00.221Z,16.37
2019-05-12T04:27:45.269Z,16.30
2019-05-12T04:34:30.259Z,16.55
2019-05-12T04:41:19.594Z,17.20
2019-05-12T04:48:04.826Z,16.97
2019-05-12T04:54:48.411Z,15.90
2019-05-12T05:01:34.607Z,16.17
2019-05-12T05:08:20.193Z,15.90
2019-05-12T05:15:06.816Z,14.40
2019-05-12T05:21:54.053Z,15.77
2019-05-12T05:28:38.663Z,14.37
2019-05-12T05:35:23.940Z,13.97
2019-05-12T05:42:08.963Z,13.50
2019-05-12T05:48:54.282Z,13.57
2019-05-12T05:55:39.835Z,12.07
2019-05-12T06:02:32.003Z,13.13
2019-05-12T06:09:11.256Z,13.03
2019-05-12T06:15:56.922Z,13.50
2019-05-12T06:22:43.807Z,13.17
2019-05-12T06:29:29.193Z,13.13
2019-05-12T06:36:22.344Z,11.80
2019-05-12T06:43:04.129Z,10.10
2019-05-12T06:49:48.770Z,10.73
2019-05-12T06:56:35.053Z,10.07
2019-05-12T07:03:28.426Z,8.93
2019-05-12T07:10:13.212Z,8.27
2019-05-12T07:17:01.481Z,7.75
2019-05-12T07:23:44.472Z,7.33
2019-05-12T07:30:32.635Z,7.63
2019-05-12T07:37:19.491Z,7.23
2019-05-12T07:44:04.488Z,5.97
2019-05-12T07:50:50.364Z,6.37
2019-05-12T07:57:45.139Z,6.47
2019-05-12T08:04:23.919Z,4.97
2019-05-12T08:11:08.939Z,6.00
2019-05-12T08:17:55.364Z,5.50
2019-05-12T08:24:43.278Z,5.20
2019-05-12T08:31:34.777Z,5.90
2019-05-12T08:38:14.642Z,5.10
2019-05-12T08:44:59.832Z,4.43
2019-05-12T08:51:49.502Z,4.75
2019-05-12T08:58:46.717Z,5.05
2019-05-12T09:05:18.949Z,4.92
2019-05-12T09:12:03.947Z,4.75
2019-05-12T09:18:48.812Z,4.37
2019-05-12T09:25:34.270Z,4.72
2019-05-12T09:32:19.376Z,4.65
2019-05-12T09:39:07.744Z,3.65
2019-05-12T09:45:56.284Z,4.00
2019-05-12T09:52:39.154Z,3.97
2019-05-12T09:59:25.880Z,3.83
2019-05-12T10:06:16.143Z,4.22
2019-05-12T10:12:57.683Z,3.90
2019-05-12T10:19:43.378Z,4.13
2019-05-12T10:26:28.391Z,3.77
2019-05-12T10:33:13.888Z,3.50
2019-05-12T10:39:59.184Z,3.50
2019-05-12T10:46:45.738Z,3.27
2019-05-12T10:53:31.000Z,3.53
2019-05-12T11:00:19.898Z,3.10
2019-05-12T11:07:04.704Z,3.33
2019-05-12T11:13:50.562Z,3.20
2019-05-12T11:20:35.503Z,2.80
2019-05-12T11:27:21.000Z,3.13
2019-05-12T11:34:06.151Z,3.40
2019-05-12T11:40:51.192Z,2.93
2019-05-12T11:47:37.342Z,2.80
2019-05-12T11:54:24.262Z,2.90
2019-05-12T12:01:10.710Z,2.60
2019-05-12T12:07:56.142Z,2.60
2019-05-12T12:14:48.493Z,2.63
2019-05-12T12:21:28.317Z,2.60
2019-05-12T12:28:13.709Z,2.80
2019-05-12T12:35:00.845Z,2.60
2019-05-12T12:41:58.343Z,2.93
2019-05-12T12:48:34.491Z,2.67
2019-05-12T12:55:19.415Z,2.60
2019-05-12T13:02:07.957Z,2.10
2019-05-12T13:08:53.954Z,2.27
2019-05-12T13:15:38.283Z,2.57
2019-05-12T13:22:24.551Z,2.20
2019-05-12T13:29:09.754Z,1.57
2019-05-12T13:35:55.644Z,1.70
2019-05-12T13:42:43.628Z,1.83
2019-05-12T13:49:29.909Z,1.77
2019-05-12T13:56:19.248Z,1.75
2019-05-12T14:03:07.137Z,1.30
2019-05-12T14:09:47.648Z,1.60
2019-05-12T14:16:33.913Z,2.00
2019-05-12T14:23:18.812Z,1.80
2019-05-12T14:30:10.023Z,1.53
2019-05-12T14:37:04.801Z,1.90
2019-05-12T14:43:38.923Z,1.50
2019-05-12T14:50:23.909Z,1.93
2019-05-12T14:57:08.765Z,1.70
2019-05-12T15:03:53.650Z,1.33
2019-05-12T15:10:38.569Z,1.60
2019-05-12T15:17:24.507Z,1.33
2019-05-12T15:24:15.433Z,1.70
2019-05-12T15:31:00.360Z,1.50
2019-05-12T15:37:43.886Z,1.57
2019-05-12T15:44:32.327Z,1.30
2019-05-12T15:51:16.104Z,1.60
2019-05-12T15:58:05.275Z,1.40
2019-05-12T16:04:48.514Z,1.70
2019-05-12T16:11:34.900Z,1.23
2019-05-12T16:18:19.768Z,1.67
2019-05-12T16:25:06.365Z,1.40
2019-05-12T16:31:53.354Z,1.60
2019-05-12T16:38:37.943Z,1.30
2019-05-12T16:45:23.506Z,1.00
2019-05-12T16:52:08.953Z,1.30
2019-05-12T16:58:54.253Z,1.27
2019-05-12T17:05:39.173Z,1.40
2019-05-12T17:12:32.063Z,1.63
2019-05-12T17:19:10.872Z,1.53
2019-05-12T17:25:55.913Z,1.30
2019-05-12T17:32:56.534Z,1.60
2019-05-12T17:39:29.490Z,1.60
2019-05-12T17:46:18.080Z,1.60
2019-05-12T17:53:01.247Z,1.30
2019-05-12T17:59:46.184Z,1.57
2019-05-12T18:06:31.140Z,1.40
2019-05-12T18:13:23.017Z,1.50
2019-05-12T18:20:04.110Z,1.43
2019-05-12T18:26:58.672Z,1.80
2019-05-12T18:33:48.914Z,1.50
2019-05-12T18:40:27.782Z,1.60
2019-05-12T18:47:14.371Z,2.20
2019-05-12T18:53:58.049Z,1.60
2019-05-12T19:00:45.090Z,1.43
2019-05-12T19:07:39.594Z,1.60
2019-05-12T19:14:17.830Z,1.60
2019-05-12T19:21:04.726Z,1.60
2019-05-12T19:27:55.465Z,1.70
2019-05-12T19:34:39.308Z,1.93
2019-05-12T19:41:24.625Z,1.87
2019-05-12T19:48:23.123Z,1.57
2019-05-12T19:54:56.761Z,1.80
2019-05-12T20:01:44.354Z,1.50
2019-05-12T20:08:28.464Z,1.80
2019-05-12T20:15:15.054Z,1.70
2019-05-12T20:22:00.468Z,1.60
2019-05-12T20:28:50.601Z,1.43
2019-05-12T20:35:33.786Z,1.40
2019-05-12T20:42:18.901Z,1.67
2019-05-12T20:49:07.562Z,1.67
2019-05-12T20:55:50.724Z,1.60
2019-05-12T21:02:35.725Z,1.43
2019-05-12T21:09:20.575Z,1.80
2019-05-12T21:16:16.358Z,2.20
2019-05-12T21:22:53.836Z,2.33
2019-05-12T21:29:38.659Z,1.60
2019-05-12T21:36:26.584Z,1.73
2019-05-12T21:43:10.333Z,1.67
2019-05-12T21:49:57.876Z,1.90
2019-05-12T21:56:44.845Z,1.90
2019-05-12T22:03:28.468Z,1.77
2019-05-12T22:10:15.590Z,1.40
2019-05-12T22:17:02.306Z,2.12
2019-05-12T22:23:51.139Z,1.90
2019-05-12T22:30:35.024Z,2.10
2019-05-12T22:37:20.023Z,2.13
2019-05-12T22:44:05.071Z,2.53
2019-05-12T22:50:50.078Z,2.07
2019-05-12T22:57:40.149Z,2.30
2019-05-12T23:04:26.026Z,2.70
2019-05-12T23:11:08.351Z,2.30
2019-05-12T23:17:53.403Z,2.40
2019-05-12T23:24:40.741Z,3.07
2019-05-12T23:31:29.849Z,2.70
2019-05-12T23:38:18.893Z,2.70
2019-05-12T23:44:58.659Z,2.57
2019-05-12T23:51:44.072Z,2.13
2019-05-12T23:58:29.427Z,2.70
